Time;durP1;ratioP1;P1;durP2;ratioP2;P2;SDS_P1;SDS_P2;PMS_P1;PMS_P2;Temp;Humidity;BMP_temperature;BMP_pressure;BME280_temperature;BME280_humidity;BME280_pressure;Samples;Min_cycle;Max_cycle;Signal;HPM_P1;HPM_P2
2024/01/17 00:00:08;;;;;;;21.85;9.18;;;-3.50;63.50;;;;;;4966125;28;20080;-63
2024/01/17 00:02:34;;;;;;;21.13;8.75;;;-3.50;63.40;;;;;;4965499;28;20913;-62
2024/01/17 00:04:59;;;;;;;19.23;9.63;;;-3.40;63.40;;;;;;4965276;28;20106;-62
2024/01/17 00:07:25;;;;;;;20.50;9.98;;;-3.40;63.30;;;;;;4967568;28;20031;-62
2024/01/17 00:09:51;;;;;;;18.95;10.30;;;-3.40;63.40;;;;;;4965358;28;20121;-63
2024/01/17 00:12:17;;;;;;;19.60;9.60;;;-3.40;63.60;;;;;;4965233;28;20034;-61
2024/01/17 00:14:42;;;;;;;19.40;9.57;;;-3.40;63.70;;;;;;4966661;28;20067;-62
2024/01/17 00:17:08;;;;;;;22.80;9.45;;;-3.30;63.70;;;;;;4964844;28;20038;-63
2024/01/17 00:19:35;;;;;;;26.40;10.48;;;-3.30;63.70;;;;;;4966415;28;20393;-63
2024/01/17 00:22:01;;;;;;;24.10;10.63;;;-3.30;63.70;;;;;;4963298;28;20027;-63
2024/01/17 00:24:26;;;;;;;20.48;10.45;;;-3.20;63.70;;;;;;4965647;28;20149;-62
2024/01/17 00:26:52;;;;;;;26.52;11.38;;;-3.20;63.60;;;;;;4966792;28;20605;-62
2024/01/17 00:29:18;;;;;;;25.83;9.77;;;-3.20;63.50;;;;;;4965694;28;20102;-62
2024/01/17 00:31:44;;;;;;;23.42;10.35;;;-3.20;63.50;;;;;;4968320;28;21445;-62
2024/01/17 00:34:10;;;;;;;24.92;11.05;;;-3.10;63.50;;;;;;4948158;28;20035;-62
2024/01/17 00:36:35;;;;;;;23.23;8.90;;;-3.10;63.50;;;;;;4968370;28;20474;-62
2024/01/17 00:39:01;;;;;;;22.42;9.73;;;-3.10;63.40;;;;;;4973893;28;20089;-62
2024/01/17 00:41:27;;;;;;;20.77;9.75;;;-3.10;63.30;;;;;;4968815;28;20034;-62
2024/01/17 00:43:52;;;;;;;25.50;9.70;;;-3.10;63.30;;;;;;4969584;28;20131;-62
2024/01/17 00:46:18;;;;;;;19.17;10.95;;;-3.00;63.30;;;;;;4890630;28;20118;-62
2024/01/17 00:48:44;;;;;;;31.25;11.23;;;-3.00;63.20;;;;;;4969275;28;20696;-62
2024/01/17 00:51:10;;;;;;;23.42;10.63;;;-3.00;63.20;;;;;;4968452;28;20117;-62
2024/01/17 00:53:35;;;;;;;26.23;10.95;;;-3.00;63.20;;;;;;4968129;28;20437;-61
2024/01/17 00:56:01;;;;;;;20.52;10.20;;;-3.00;63.80;;;;;;4969248;28;20474;-62
2024/01/17 00:58:28;;;;;;;20.92;10.20;;;-3.00;63.30;;;;;;4972886;28;20065;-62
2024/01/17 01:00:53;;;;;;;24.33;10.13;;;-3.00;63.40;;;;;;4968727;28;20023;-63
2024/01/17 01:03:19;;;;;;;20.17;9.18;;;-3.00;63.40;;;;;;4968252;28;20104;-62
2024/01/17 01:05:46;;;;;;;22.02;9.63;;;-2.70;63.50;;;;;;4969257;28;20027;-63
2024/01/17 01:08:12;;;;;;;22.27;10.02;;;-2.90;63.50;;;;;;4968955;28;20387;-62
2024/01/17 01:10:38;;;;;;;21.30;10.05;;;-2.90;64.30;;;;;;4970651;28;20042;-62
2024/01/17 01:13:04;;;;;;;26.52;10.32;;;-2.90;63.70;;;;;;4971825;28;20452;-63
2024/01/17 01:15:29;;;;;;;21.63;9.48;;;-2.70;63.80;;;;;;4968715;28;20522;-62
2024/01/17 01:17:55;;;;;;;21.88;9.43;;;-2.90;63.70;;;;;;4968282;28;20363;-62
2024/01/17 01:20:21;;;;;;;15.57;9.35;;;-2.80;63.90;;;;;;4972940;28;20052;-63
2024/01/17 01:22:46;;;;;;;19.38;9.00;;;-2.80;63.80;;;;;;4967135;28;20026;-62
2024/01/17 01:25:12;;;;;;;19.95;9.90;;;-2.70;63.90;;;;;;4971023;28;20034;-62
2024/01/17 01:27:37;;;;;;;20.33;9.38;;;-2.70;63.90;;;;;;4970979;28;20039;-62
2024/01/17 01:30:04;;;;;;;20.58;9.25;;;-2.70;63.90;;;;;;4969294;28;20038;-62
2024/01/17 01:32:29;;;;;;;29.63;10.15;;;-2.70;63.90;;;;;;4967821;28;20479;-62
2024/01/17 01:34:55;;;;;;;22.73;9.65;;;-2.60;64.00;;;;;;4967596;28;20102;-63
2024/01/17 01:37:20;;;;;;;20.10;9.20;;;-2.60;64.00;;;;;;4970590;28;20054;-63
2024/01/17 01:39:46;;;;;;;22.50;9.52;;;-2.60;64.00;;;;;;4962806;28;20065;-63
2024/01/17 01:42:13;;;;;;;19.08;9.57;;;-2.50;63.90;;;;;;4967094;28;20023;-62
2024/01/17 01:44:38;;;;;;;21.58;9.55;;;-2.30;64.00;;;;;;4967690;28;20034;-61
2024/01/17 01:47:07;;;;;;;21.15;10.40;;;-2.50;63.90;;;;;;4880651;28;20023;-63
2024/01/17 01:49:32;;;;;;;21.65;9.65;;;-2.40;64.10;;;;;;4967809;28;20437;-62
2024/01/17 01:51:59;;;;;;;22.77;9.73;;;-2.40;64.10;;;;;;4968049;28;20114;-62
2024/01/17 01:54:26;;;;;;;19.15;10.07;;;-2.20;64.20;;;;;;4967884;28;20144;-62
2024/01/17 01:56:54;;;;;;;18.48;9.65;;;-2.30;64.10;;;;;;4973616;28;20026;-63
2024/01/17 01:59:20;;;;;;;18.98;9.68;;;-2.10;64.20;;;;;;4966958;28;20728;-63
2024/01/17 02:01:47;;;;;;;17.63;9.65;;;-2.00;64.20;;;;;;4968615;28;20042;-62
2024/01/17 02:04:15;;;;;;;18.83;9.35;;;-2.00;64.10;;;;;;4970735;28;20047;-62
2024/01/17 02:06:43;;;;;;;25.58;10.52;;;-1.90;64.20;;;;;;4970997;28;20482;-63
2024/01/17 02:09:09;;;;;;;21.98;10.35;;;-1.90;64.30;;;;;;4971741;28;21054;-63
2024/01/17 02:11:37;;;;;;;23.45;10.88;;;-2.10;64.10;;;;;;4966864;28;20058;-63
2024/01/17 02:14:02;;;;;;;21.20;10.60;;;-2.10;64.00;;;;;;4968245;28;20489;-63
2024/01/17 02:16:28;;;;;;;27.20;9.73;;;-2.10;64.10;;;;;;4967594;28;20082;-62
2024/01/17 02:18:54;;;;;;;22.20;9.68;;;-2.00;64.20;;;;;;4967308;28;20413;-63
2024/01/17 02:21:21;;;;;;;21.70;9.82;;;-1.90;64.10;;;;;;4974209;28;20030;-62
2024/01/17 02:23:50;;;;;;;26.58;11.05;;;-2.00;64.00;;;;;;4969853;28;20054;-62
2024/01/17 02:26:16;;;;;;;18.73;9.75;;;-1.90;64.10;;;;;;4966386;28;20066;-62
2024/01/17 02:28:42;;;;;;;25.95;10.90;;;-1.90;63.90;;;;;;4966043;28;20058;-62
2024/01/17 02:31:07;;;;;;;26.17;10.98;;;-1.90;63.90;;;;;;4965704;28;20109;-62
2024/01/17 02:33:34;;;;;;;20.55;10.82;;;-1.90;63.90;;;;;;4968916;28;20031;-62
2024/01/17 02:35:59;;;;;;;28.35;12.05;;;-1.90;63.80;;;;;;4970071;28;20037;-63
2024/01/17 02:38:25;;;;;;;24.45;10.55;;;-1.90;63.90;;;;;;4967258;28;20019;-63
2024/01/17 02:40:51;;;;;;;22.38;10.50;;;-1.80;63.90;;;;;;4972171;28;20058;-62
2024/01/17 02:43:16;;;;;;;26.83;11.05;;;-1.90;63.80;;;;;;4967586;28;20065;-63
2024/01/17 02:45:42;;;;;;;26.55;12.32;;;-1.80;63.90;;;;;;4966234;28;20027;-63
2024/01/17 02:48:08;;;;;;;21.60;10.82;;;-1.80;63.90;;;;;;4973039;28;20078;-63
2024/01/17 02:50:33;;;;;;;25.00;11.52;;;-1.80;64.10;;;;;;4948894;28;20441;-63
2024/01/17 02:52:59;;;;;;;20.58;10.40;;;-1.80;64.10;;;;;;4966197;28;20528;-63
2024/01/17 02:55:25;;;;;;;23.88;11.18;;;-1.70;64.20;;;;;;4967308;28;20031;-63
2024/01/17 02:57:51;;;;;;;22.83;10.68;;;-1.60;64.30;;;;;;4973863;28;20068;-62
2024/01/17 03:00:17;;;;;;;22.33;11.23;;;-1.70;64.30;;;;;;4969719;28;20085;-62
2024/01/17 03:02:44;;;;;;;21.50;10.55;;;-1.60;64.50;;;;;;4966961;28;20426;-62
2024/01/17 03:05:11;;;;;;;22.52;10.88;;;-1.60;64.50;;;;;;4966913;28;20025;-62
2024/01/17 03:07:37;;;;;;;24.27;11.95;;;-1.60;64.40;;;;;;4966762;28;20033;-62
2024/01/17 03:10:03;;;;;;;24.58;11.02;;;-1.50;64.50;;;;;;4966743;28;20042;-63
2024/01/17 03:12:28;;;;;;;23.83;11.23;;;-1.40;64.50;;;;;;4973013;28;20091;-63
2024/01/17 03:14:54;;;;;;;20.75;11.07;;;-1.40;64.50;;;;;;4967431;28;20055;-62
2024/01/17 03:17:20;;;;;;;21.48;10.95;;;-1.40;64.50;;;;;;4965970;28;20034;-63
2024/01/17 03:19:47;;;;;;;26.55;12.82;;;-1.30;64.60;;;;;;4966567;28;20026;-63
2024/01/17 03:22:15;;;;;;;22.25;11.10;;;-1.30;64.40;;;;;;4966110;28;20027;-62
2024/01/17 03:24:41;;;;;;;21.98;11.90;;;-1.30;64.50;;;;;;4970506;28;20034;-62
2024/01/17 03:27:07;;;;;;;24.73;10.60;;;-1.30;64.40;;;;;;4962376;28;20117;-62
2024/01/17 03:29:32;;;;;;;20.10;10.93;;;-1.20;64.60;;;;;;4967290;28;20148;-63
2024/01/17 03:31:58;;;;;;;20.50;10.07;;;-1.20;64.50;;;;;;4966324;28;20070;-62
2024/01/17 03:34:24;;;;;;;20.65;10.15;;;-1.20;64.40;;;;;;4970462;28;20030;-62
2024/01/17 03:36:50;;;;;;;26.15;10.52;;;-1.10;64.50;;;;;;4966212;28;20367;-62
2024/01/17 03:39:16;;;;;;;18.58;10.52;;;-1.10;64.50;;;;;;4964654;28;20027;-63
2024/01/17 03:41:41;;;;;;;19.65;9.90;;;-1.10;64.60;;;;;;4965611;28;20023;-63
2024/01/17 03:44:07;;;;;;;22.52;10.70;;;-1.10;64.60;;;;;;4948788;28;20351;-61
2024/01/17 03:46:33;;;;;;;21.98;11.00;;;-1.00;64.60;;;;;;4896681;28;20026;-62
2024/01/17 03:48:59;;;;;;;25.35;11.27;;;-1.00;64.70;;;;;;4970623;28;20035;-61
2024/01/17 03:51:25;;;;;;;21.48;10.35;;;-1.00;64.60;;;;;;4966142;28;20605;-62
2024/01/17 03:53:52;;;;;;;24.70;10.05;;;-1.00;64.70;;;;;;4965301;28;20023;-63
2024/01/17 03:56:17;;;;;;;21.05;10.20;;;-0.90;64.80;;;;;;4968195;28;20478;-62
2024/01/17 03:58:43;;;;;;;19.90;9.88;;;-0.90;64.80;;;;;;4968675;28;20117;-62
2024/01/17 04:01:12;;;;;;;18.98;9.73;;;-0.90;64.90;;;;;;4974025;28;20101;-61
2024/01/17 04:03:39;;;;;;;21.65;10.15;;;-0.90;64.90;;;;;;4963946;28;20027;-63
2024/01/17 04:06:06;;;;;;;22.63;9.95;;;-0.60;65.70;;;;;;4964312;28;20023;-61
2024/01/17 04:08:31;;;;;;;21.67;10.98;;;-0.80;64.90;;;;;;4965596;28;20031;-62
2024/01/17 04:10:57;;;;;;;18.42;9.95;;;-0.80;64.90;;;;;;4965318;28;20069;-62
2024/01/17 04:13:23;;;;;;;21.85;11.50;;;-0.80;64.90;;;;;;4965291;28;20113;-62
2024/01/17 04:15:48;;;;;;;20.25;9.73;;;-0.80;64.80;;;;;;4970358;28;20106;-62
2024/01/17 04:18:14;;;;;;;21.13;10.35;;;-0.60;64.90;;;;;;4965798;28;20517;-62
2024/01/17 04:20:40;;;;;;;22.15;9.40;;;-0.80;64.80;;;;;;4966848;28;20616;-62
2024/01/17 04:23:06;;;;;;;21.38;10.23;;;-0.30;65.10;;;;;;4965124;28;20038;-62
2024/01/17 04:25:31;;;;;;;21.73;10.55;;;-0.50;65.00;;;;;;4965870;28;20382;-62
2024/01/17 04:27:57;;;;;;;22.40;10.88;;;-0.70;64.90;;;;;;4963864;28;20039;-62
2024/01/17 04:30:23;;;;;;;19.23;9.75;;;-0.50;65.10;;;;;;4965969;28;20022;-63
2024/01/17 04:32:48;;;;;;;24.35;10.85;;;-0.70;65.10;;;;;;4967294;28;20449;-63
2024/01/17 04:35:20;;;;;;;21.95;9.77;;;-0.50;65.30;;;;;;4966432;28;20023;-62
2024/01/17 04:37:46;;;;;;;19.90;10.30;;;-0.60;65.30;;;;;;4948395;28;20528;-62
2024/01/17 04:40:12;;;;;;;19.38;10.45;;;-0.60;65.20;;;;;;4952367;28;20486;-63
2024/01/17 04:42:38;;;;;;;21.77;10.07;;;-0.60;65.30;;;;;;4966774;28;20138;-62
2024/01/17 04:45:04;;;;;;;20.90;10.73;;;-0.60;65.30;;;;;;4972506;28;20027;-62
2024/01/17 04:47:31;;;;;;;19.20;10.20;;;-0.50;65.30;;;;;;4963474;28;20500;-63
2024/01/17 04:49:57;;;;;;;22.40;10.45;;;-0.30;65.40;;;;;;4964035;28;20038;-63
2024/01/17 04:52:23;;;;;;;25.60;11.43;;;-0.50;65.40;;;;;;4964841;28;20027;-63
2024/01/17 04:54:48;;;;;;;20.70;10.70;;;-0.50;65.40;;;;;;4965656;28;20035;-62
2024/01/17 04:57:15;;;;;;;27.73;11.82;;;-0.40;65.60;;;;;;4967887;28;20036;-62
2024/01/17 04:59:41;;;;;;;23.10;12.30;;;-0.40;65.50;;;;;;4970743;28;20033;-63
2024/01/17 05:02:06;;;;;;;22.58;10.65;;;-0.40;65.50;;;;;;4966993;28;20034;-63
2024/01/17 05:04:32;;;;;;;23.13;10.98;;;-0.40;65.50;;;;;;4965757;28;20035;-62
2024/01/17 05:06:58;;;;;;;25.17;10.27;;;-0.40;65.30;;;;;;4965379;28;20041;-61
2024/01/17 05:09:24;;;;;;;28.38;11.85;;;-0.40;65.10;;;;;;4964406;28;20522;-62
2024/01/17 05:11:49;;;;;;;24.40;11.30;;;-0.30;65.00;;;;;;4964289;28;20046;-63
2024/01/17 05:14:15;;;;;;;25.63;10.90;;;-0.30;65.30;;;;;;4965955;28;20039;-61
2024/01/17 05:16:42;;;;;;;23.92;11.48;;;-0.40;65.50;;;;;;4965664;28;20031;-62
2024/01/17 05:19:07;;;;;;;23.13;11.80;;;-0.30;65.60;;;;;;4970224;28;20035;-62
2024/01/17 05:21:33;;;;;;;20.27;11.43;;;-0.40;65.50;;;;;;4971666;28;20400;-61
2024/01/17 05:23:59;;;;;;;23.10;11.25;;;-0.30;65.70;;;;;;4971708;28;20082;-62
2024/01/17 05:26:24;;;;;;;24.60;12.60;;;-0.30;65.80;;;;;;4968803;28;20026;-61
2024/01/17 05:28:50;;;;;;;25.35;11.45;;;-0.30;65.80;;;;;;4970383;28;20054;-62
2024/01/17 05:31:16;;;;;;;23.40;11.07;;;-0.30;65.80;;;;;;4968244;28;20026;-63
2024/01/17 05:33:43;;;;;;;24.25;11.38;;;-0.30;65.80;;;;;;4975077;28;20509;-61
2024/01/17 05:36:09;;;;;;;32.65;18.48;;;-0.20;65.90;;;;;;4969755;28;20035;-62
2024/01/17 05:38:35;;;;;;;26.17;15.20;;;-0.20;65.90;;;;;;4968175;28;20033;-63
2024/01/17 05:41:00;;;;;;;24.90;13.52;;;-0.20;66.20;;;;;;4968435;28;20405;-62
2024/01/17 05:43:26;;;;;;;31.05;14.27;;;-0.10;66.40;;;;;;4965373;28;20031;-63
2024/01/17 05:45:52;;;;;;;21.13;12.77;;;-0.10;66.50;;;;;;4907943;28;20475;-62
2024/01/17 05:48:17;;;;;;;29.77;12.63;;;-0.10;66.30;;;;;;4949683;28;20035;-63
2024/01/17 05:50:44;;;;;;;25.48;12.60;;;0.00;65.90;;;;;;4968668;28;20054;-63
2024/01/17 05:53:10;;;;;;;22.90;12.23;;;0.00;66.10;;;;;;4969112;28;20030;-62
2024/01/17 05:55:37;;;;;;;27.73;13.13;;;0.00;66.30;;;;;;4967775;28;20031;-61
2024/01/17 05:58:03;;;;;;;27.00;13.02;;;0.30;66.30;;;;;;4968848;28;20023;-62
2024/01/17 06:00:28;;;;;;;27.23;12.50;;;0.10;65.80;;;;;;4967140;28;20023;-62
2024/01/17 06:02:54;;;;;;;25.30;13.15;;;0.10;65.80;;;;;;4968780;28;20031;-62
2024/01/17 06:05:20;;;;;;;24.85;11.35;;;0.30;66.50;;;;;;4968607;28;20042;-62
2024/01/17 06:07:48;;;;;;;22.80;11.73;;;0.10;66.60;;;;;;4967470;28;20027;-62
2024/01/17 06:10:14;;;;;;;21.42;11.30;;;0.10;66.90;;;;;;4968486;28;20054;-62
2024/01/17 06:12:41;;;;;;;22.63;11.98;;;0.30;67.10;;;;;;4969673;28;20037;-62
2024/01/17 06:15:07;;;;;;;22.80;11.57;;;0.30;67.00;;;;;;4967876;28;20023;-63
2024/01/17 06:17:33;;;;;;;25.33;12.50;;;0.20;67.10;;;;;;4963675;28;20025;-62
2024/01/17 06:19:59;;;;;;;23.85;11.90;;;0.50;67.50;;;;;;4966785;28;20393;-62
2024/01/17 06:22:24;;;;;;;24.88;12.00;;;0.30;67.50;;;;;;4966443;28;20030;-62
2024/01/17 06:24:50;;;;;;;23.35;10.60;;;0.30;66.60;;;;;;4965648;28;20121;-61
2024/01/17 06:27:17;;;;;;;25.20;12.15;;;0.40;67.30;;;;;;4966012;28;20548;-63
2024/01/17 06:29:43;;;;;;;24.30;11.98;;;0.40;67.60;;;;;;4967105;28;20118;-63
2024/01/17 06:32:09;;;;;;;22.70;11.90;;;0.50;67.60;;;;;;4967622;28;20137;-63
2024/01/17 06:34:36;;;;;;;19.60;11.93;;;0.50;67.50;;;;;;4968159;28;20030;-63
2024/01/17 06:37:03;;;;;;;22.48;12.00;;;0.60;67.10;;;;;;4950087;28;20370;-63
2024/01/17 06:39:32;;;;;;;25.20;13.23;;;0.60;67.60;;;;;;4971682;28;20370;-62
2024/01/17 06:41:58;;;;;;;24.63;12.63;;;0.70;67.60;;;;;;4967327;28;20026;-62
2024/01/17 06:44:25;;;;;;;24.92;12.65;;;0.60;67.20;;;;;;4967129;28;20031;-62
2024/01/17 06:46:51;;;;;;;24.58;12.68;;;0.70;67.60;;;;;;4892300;28;20035;-63
2024/01/17 06:49:16;;;;;;;27.60;12.57;;;0.80;68.10;;;;;;4969637;28;20042;-63
2024/01/17 06:51:42;;;;;;;23.65;13.15;;;0.70;68.30;;;;;;4966826;28;20042;-62
2024/01/17 06:54:09;;;;;;;30.83;14.32;;;0.80;68.40;;;;;;4965113;28;20029;-62
2024/01/17 06:56:36;;;;;;;32.60;15.80;;;0.80;67.80;;;;;;4968193;28;20406;-62
2024/01/17 06:59:02;;;;;;;32.35;15.48;;;0.90;68.40;;;;;;4967828;28;20081;-63
2024/01/17 07:01:28;;;;;;;25.83;13.07;;;0.90;68.50;;;;;;4968174;28;20023;-62
2024/01/17 07:03:54;;;;;;;25.85;13.02;;;1.00;68.60;;;;;;4969022;28;20105;-63
2024/01/17 07:06:20;;;;;;;27.50;13.85;;;1.10;68.60;;;;;;4964357;28;20039;-63
2024/01/17 07:08:45;;;;;;;22.52;13.43;;;1.10;68.50;;;;;;4969924;28;20029;-61
2024/01/17 07:11:11;;;;;;;25.75;13.85;;;1.20;68.40;;;;;;4969569;28;20066;-63
2024/01/17 07:13:40;;;;;;;26.98;13.27;;;1.20;68.00;;;;;;4969559;28;20406;-63
2024/01/17 07:16:06;;;;;;;23.73;13.25;;;1.20;67.50;;;;;;4966766;28;20501;-64
2024/01/17 07:18:34;;;;;;;27.10;14.32;;;1.20;68.00;;;;;;4964593;28;20027;-61
2024/01/17 07:21:06;;;;;;;26.60;13.20;;;1.30;68.40;;;;;;4966083;28;20050;-62
2024/01/17 07:23:33;;;;;;;26.23;13.82;;;1.30;68.90;;;;;;4968093;28;20497;-63
2024/01/17 07:25:58;;;;;;;25.35;13.43;;;1.40;69.00;;;;;;4966914;28;20389;-63
2024/01/17 07:28:24;;;;;;;25.70;13.88;;;1.40;68.80;;;;;;4965459;28;20082;-65
2024/01/17 07:30:50;;;;;;;25.65;13.50;;;1.40;68.70;;;;;;4967393;28;20533;-63
2024/01/17 07:33:16;;;;;;;24.42;13.68;;;1.50;68.80;;;;;;4967806;28;20030;-65
2024/01/17 07:35:41;;;;;;;25.65;12.98;;;1.50;68.60;;;;;;4966249;28;20058;-63
2024/01/17 07:38:07;;;;;;;33.17;14.95;;;1.60;68.90;;;;;;4967777;28;20074;-64
2024/01/17 07:40:33;;;;;;;27.73;15.40;;;1.80;69.10;;;;;;4967890;28;20030;-62
2024/01/17 07:42:59;;;;;;;32.40;16.58;;;1.80;69.30;;;;;;4952066;28;20035;-63
2024/01/17 07:45:25;;;;;;;35.38;17.20;;;1.70;69.30;;;;;;4878306;28;20632;-63
2024/01/17 07:47:51;;;;;;;32.40;17.25;;;1.80;69.30;;;;;;4967929;28;20089;-63
2024/01/17 07:50:17;;;;;;;32.97;17.13;;;1.90;69.10;;;;;;4966105;28;20445;-63
2024/01/17 07:52:42;;;;;;;31.60;17.52;;;2.20;69.40;;;;;;4949925;28;20465;-64
2024/01/17 07:55:08;;;;;;;34.70;16.98;;;2.00;69.30;;;;;;4951464;28;20037;-63
2024/01/17 07:57:34;;;;;;;32.42;16.55;;;2.00;69.90;;;;;;4965023;28;20023;-64
2024/01/17 08:00:00;;;;;;;34.28;16.15;;;2.10;69.90;;;;;;4967900;28;20031;-64
2024/01/17 08:02:25;;;;;;;26.63;15.05;;;2.10;69.10;;;;;;4967100;28;20031;-65
2024/01/17 08:04:53;;;;;;;27.25;15.15;;;2.30;69.20;;;;;;4967496;28;20486;-66
2024/01/17 08:07:24;;;;;;;26.45;14.85;;;2.20;69.10;;;;;;4968618;28;20026;-64
2024/01/17 08:09:51;;;;;;;26.63;14.07;;;2.30;69.10;;;;;;4970670;28;20062;-63
2024/01/17 08:12:17;;;;;;;25.80;14.77;;;2.30;69.20;;;;;;4967315;28;20493;-63
2024/01/17 08:14:43;;;;;;;25.15;13.93;;;2.40;69.20;;;;;;4965929;28;20029;-64
2024/01/17 08:17:08;;;;;;;29.00;14.63;;;2.40;69.10;;;;;;4953337;28;20039;-65
2024/01/17 08:19:34;;;;;;;29.20;14.88;;;2.50;69.00;;;;;;4963928;28;20485;-64
2024/01/17 08:22:01;;;;;;;28.40;14.50;;;2.50;68.60;;;;;;4966969;28;20058;-64
2024/01/17 08:24:26;;;;;;;40.78;17.75;;;2.60;68.60;;;;;;4971446;28;20023;-64
2024/01/17 08:26:52;;;;;;;35.67;19.23;;;2.80;68.90;;;;;;4966561;28;20413;-64
2024/01/17 08:29:18;;;;;;;36.42;17.58;;;2.50;68.90;;;;;;4970370;28;20117;-64
2024/01/17 08:31:44;;;;;;;30.80;16.65;;;2.60;69.00;;;;;;4965641;28;20073;-65
2024/01/17 08:34:11;;;;;;;30.30;15.30;;;2.60;68.80;;;;;;4968653;28;20050;-63
2024/01/17 08:36:37;;;;;;;28.20;14.55;;;2.60;69.10;;;;;;4947945;28;20398;-64
2024/01/17 08:39:05;;;;;;;30.45;17.13;;;2.70;69.30;;;;;;4968867;28;20031;-63
2024/01/17 08:41:31;;;;;;;27.42;15.63;;;2.70;69.30;;;;;;4972778;28;20030;-63
2024/01/17 08:43:56;;;;;;;29.33;17.02;;;2.80;69.20;;;;;;4973211;28;20118;-63
2024/01/17 08:46:22;;;;;;;31.63;15.70;;;3.00;69.50;;;;;;4957745;28;20035;-63
2024/01/17 08:48:48;;;;;;;30.17;15.55;;;3.20;69.90;;;;;;4973461;28;20432;-64
2024/01/17 09:03:58;;;;;;;35.90;15.45;;;3.30;69.30;;;;;;3120958;28;20178;-65
2024/01/17 09:06:24;;;;;;;33.80;16.13;;;3.30;68.50;;;;;;4956522;28;20126;-65
2024/01/17 09:08:49;;;;;;;32.47;15.98;;;3.30;68.60;;;;;;4949266;28;20034;-64
2024/01/17 09:11:15;;;;;;;31.45;15.80;;;3.30;68.40;;;;;;4935183;28;20035;-63
2024/01/17 09:13:42;;;;;;;28.25;15.65;;;3.30;68.30;;;;;;4959425;28;20745;-63
2024/01/17 09:16:07;;;;;;;31.73;15.98;;;3.30;68.60;;;;;;4952363;28;20031;-63
2024/01/17 09:18:33;;;;;;;32.15;16.67;;;3.30;68.80;;;;;;4954470;28;20043;-64
2024/01/17 09:20:59;;;;;;;33.50;15.70;;;3.30;68.90;;;;;;4952179;28;20035;-63
2024/01/17 09:23:25;;;;;;;28.63;16.05;;;3.30;69.40;;;;;;4946664;28;20031;-64
2024/01/17 09:25:50;;;;;;;31.10;15.98;;;3.30;69.40;;;;;;4926825;28;20040;-64
2024/01/17 09:28:16;;;;;;;43.60;17.50;;;3.40;69.70;;;;;;4949493;28;20034;-63
2024/01/17 09:30:42;;;;;;;32.10;17.17;;;3.40;69.80;;;;;;4944866;28;20128;-64
2024/01/17 09:33:07;;;;;;;26.67;15.95;;;3.40;69.30;;;;;;4950598;28;20031;-65
2024/01/17 09:35:35;;;;;;;31.92;15.85;;;3.40;69.50;;;;;;4947295;28;20031;-62
2024/01/17 09:38:02;;;;;;;28.75;16.63;;;3.50;69.50;;;;;;4943305;28;20027;-63
2024/01/17 09:40:28;;;;;;;30.48;16.27;;;3.50;69.50;;;;;;4946616;28;20030;-63
2024/01/17 09:42:54;;;;;;;35.47;17.35;;;3.50;69.50;;;;;;4951415;28;20035;-64
2024/01/17 09:45:22;;;;;;;34.72;17.27;;;3.50;68.90;;;;;;4868176;28;20046;-61
2024/01/17 09:47:51;;;;;;;28.20;16.23;;;3.50;68.80;;;;;;4934421;28;20030;-62
2024/01/17 09:50:17;;;;;;;30.45;17.83;;;3.50;69.30;;;;;;4940421;28;20074;-63
2024/01/17 09:52:43;;;;;;;35.03;18.52;;;3.50;69.00;;;;;;4949566;28;20066;-63
2024/01/17 09:55:09;;;;;;;33.45;15.50;;;3.50;68.80;;;;;;4946246;28;20085;-63
2024/01/17 09:57:43;;;;;;;30.80;16.52;;;3.50;69.40;;;;;;4928736;29;20027;-63
2024/01/17 10:00:09;;;;;;;23.87;14.33;;;3.60;69.70;;;;;;4947015;28;20875;-63
2024/01/17 10:02:39;;;;;;;20.00;12.63;;;3.60;69.30;;;;;;4947124;28;20291;-62
2024/01/17 10:05:07;;;;;;;28.08;15.55;;;3.60;69.90;;;;;;4944862;28;20616;-63
2024/01/17 10:07:32;;;;;;;21.63;13.43;;;3.60;70.20;;;;;;4948778;28;20042;-63
2024/01/17 10:09:58;;;;;;;24.48;14.50;;;3.60;70.40;;;;;;4945881;28;20465;-63
2024/01/17 10:12:25;;;;;;;24.05;14.70;;;3.60;70.10;;;;;;4945720;28;20570;-62
2024/01/17 10:14:50;;;;;;;28.95;16.77;;;3.70;70.50;;;;;;4945738;28;20237;-63
2024/01/17 10:17:16;;;;;;;24.20;14.88;;;3.70;70.70;;;;;;4947524;28;20569;-62
2024/01/17 10:19:41;;;;;;;25.95;15.77;;;3.80;70.70;;;;;;4947951;28;20035;-62
2024/01/17 10:22:10;;;;;;;25.65;14.98;;;3.80;70.70;;;;;;4950683;28;20454;-62
2024/01/17 10:24:36;;;;;;;23.88;14.02;;;3.90;70.80;;;;;;4945859;29;20027;-63
2024/01/17 10:27:03;;;;;;;26.27;14.68;;;3.90;70.60;;;;;;4944977;28;20024;-63
2024/01/17 10:29:30;;;;;;;23.45;13.82;;;4.00;70.50;;;;;;4943448;28;20114;-63
2024/01/17 10:31:59;;;;;;;26.42;15.23;;;4.00;70.40;;;;;;4946955;28;20034;-63
2024/01/17 10:34:29;;;;;;;24.45;14.43;;;4.00;70.50;;;;;;4946458;28;20078;-64
2024/01/17 10:36:55;;;;;;;24.95;14.75;;;4.10;70.70;;;;;;4950032;28;20781;-62
2024/01/17 10:39:21;;;;;;;23.30;14.07;;;4.10;70.70;;;;;;4946317;28;20102;-64
2024/01/17 10:41:51;;;;;;;35.28;15.82;;;4.20;70.70;;;;;;4945553;28;20085;-63
2024/01/17 10:44:25;;;;;;;21.73;14.48;;;4.20;70.80;;;;;;4945246;28;20094;-63
2024/01/17 10:46:52;;;;;;;17.58;11.93;;;4.30;70.90;;;;;;4889744;28;20030;-63
2024/01/17 10:49:18;;;;;;;16.15;10.52;;;4.30;70.50;;;;;;4949747;28;20062;-62
2024/01/17 10:52:13;;;;;;;19.92;11.85;;;4.40;70.60;;;;;;4947153;28;20163;-63
2024/01/17 10:54:47;;;;;;;18.35;12.00;;;4.40;71.10;;;;;;4943609;28;20179;-63
2024/01/17 10:57:15;;;;;;;16.10;10.77;;;4.40;70.60;;;;;;4946944;28;20034;-64
2024/01/17 10:59:50;;;;;;;15.68;10.80;;;4.50;70.50;;;;;;4945961;28;20732;-64
2024/01/17 11:02:20;;;;;;;16.63;10.57;;;4.50;70.70;;;;;;4953475;28;20498;-63
2024/01/17 11:04:54;;;;;;;26.08;14.82;;;4.60;70.50;;;;;;4945955;28;20048;-63
2024/01/17 11:07:21;;;;;;;24.30;13.50;;;4.60;70.50;;;;;;4948981;28;20054;-62
2024/01/17 11:09:50;;;;;;;19.23;12.80;;;4.60;70.40;;;;;;4952674;28;20039;-64
2024/01/17 11:12:17;;;;;;;17.58;11.35;;;4.70;70.50;;;;;;4956008;28;20086;-63
2024/01/17 11:14:43;;;;;;;19.10;11.32;;;4.70;70.40;;;;;;4946695;28;20041;-63
2024/01/17 11:17:10;;;;;;;16.25;11.23;;;4.70;70.40;;;;;;4945405;28;20031;-64
2024/01/17 11:19:37;;;;;;;14.52;9.88;;;4.70;70.50;;;;;;4946357;28;20042;-63
2024/01/17 11:22:03;;;;;;;21.38;14.15;;;4.80;70.10;;;;;;4948846;28;20138;-64
2024/01/17 11:24:41;;;;;;;15.95;11.27;;;4.80;70.20;;;;;;4952241;28;20493;-64
2024/01/17 11:27:38;;;;;;;15.52;10.65;;;4.80;69.80;;;;;;4946944;28;20699;-64
2024/01/17 11:30:34;;;;;;;15.85;10.80;;;4.80;70.20;;;;;;4945595;28;20371;-62
2024/01/17 11:33:12;;;;;;;18.55;11.13;;;4.80;69.90;;;;;;4944987;28;20054;-63
2024/01/17 11:35:51;;;;;;;17.05;11.10;;;4.80;70.00;;;;;;4946254;28;20039;-63
2024/01/17 11:38:22;;;;;;;17.23;11.50;;;4.70;69.70;;;;;;4944677;28;20724;-63
2024/01/17 11:40:56;;;;;;;15.93;10.77;;;4.70;69.90;;;;;;4951220;28;20096;-63
2024/01/17 11:43:22;;;;;;;31.42;17.98;;;4.70;69.60;;;;;;4943113;28;20087;-63
2024/01/17 11:45:50;;;;;;;27.25;16.48;;;4.70;69.80;;;;;;4895548;28;20031;-64
2024/01/17 11:48:23;;;;;;;28.08;16.88;;;4.70;69.80;;;;;;4947810;28;20027;-63
2024/01/17 11:51:06;;;;;;;23.02;13.27;;;4.70;69.60;;;;;;4929436;28;20520;-63
2024/01/17 11:53:35;;;;;;;18.63;12.27;;;4.60;69.90;;;;;;4952388;28;20071;-64
2024/01/17 11:56:03;;;;;;;20.17;11.48;;;4.60;69.90;;;;;;4947097;28;20122;-63
2024/01/17 11:58:42;;;;;;;19.85;12.60;;;4.60;69.80;;;;;;4947488;28;20839;-63
2024/01/17 12:01:38;;;;;;;15.63;11.00;;;4.60;70.80;;;;;;4948242;28;20038;-64
2024/01/17 12:04:15;;;;;;;15.38;10.20;;;4.60;71.30;;;;;;4943855;28;20494;-61
2024/01/17 12:06:51;;;;;;;16.58;9.88;;;4.60;71.00;;;;;;4949941;28;20024;-62
2024/01/17 12:09:20;;;;;;;14.13;10.10;;;4.70;70.70;;;;;;4944571;28;20103;-63
2024/01/17 12:11:47;;;;;;;14.27;9.80;;;4.70;70.80;;;;;;4945607;28;20775;-64
2024/01/17 12:14:15;;;;;;;17.63;10.80;;;4.70;70.70;;;;;;4943725;28;20059;-63
2024/01/17 12:16:42;;;;;;;17.38;11.07;;;4.80;70.80;;;;;;4941231;28;20059;-64
2024/01/17 12:19:10;;;;;;;16.30;11.73;;;4.80;70.80;;;;;;4951546;28;20035;-64
2024/01/17 12:21:36;;;;;;;16.88;12.32;;;4.80;70.80;;;;;;4946344;28;20027;-64
2024/01/17 12:24:02;;;;;;;17.48;13.25;;;4.80;70.90;;;;;;4943797;28;20129;-64
2024/01/17 12:26:28;;;;;;;19.63;13.48;;;4.90;70.90;;;;;;4949962;28;20102;-64
2024/01/17 12:29:09;;;;;;;17.98;13.27;;;4.90;70.90;;;;;;4948703;28;20063;-63
2024/01/17 12:31:36;;;;;;;21.95;12.55;;;5.00;71.40;;;;;;4942523;28;20031;-63
2024/01/17 12:34:02;;;;;;;20.10;13.45;;;5.10;71.00;;;;;;4947395;28;20102;-64
2024/01/17 12:36:30;;;;;;;17.92;11.98;;;5.10;70.90;;;;;;4954066;28;20035;-63
2024/01/17 12:38:56;;;;;;;17.67;11.93;;;5.20;70.80;;;;;;4951482;28;20050;-63
2024/01/17 12:41:21;;;;;;;19.85;11.57;;;5.20;70.60;;;;;;4952647;28;20031;-64
2024/01/17 12:43:47;;;;;;;16.80;11.15;;;5.30;70.40;;;;;;4945134;28;20042;-63